createdAt,value
2023-05-25T00:00:49.725Z,8.91
2023-05-25T00:01:39.024Z,8.94
2023-05-25T00:02:39.245Z,8.95
2023-05-25T00:03:39.039Z,8.76
2023-05-25T00:04:39.075Z,8.79
2023-05-25T00:05:38.948Z,8.82
2023-05-25T00:06:38.953Z,8.84
2023-05-25T00:07:38.944Z,8.82
2023-05-25T00:08:38.944Z,8.78
2023-05-25T00:09:38.957Z,8.76
2023-05-25T00:10:38.932Z,8.81
2023-05-25T00:11:38.938Z,8.78
2023-05-25T00:12:38.923Z,8.74
2023-05-25T00:13:38.923Z,8.78
2023-05-25T00:14:38.927Z,8.69
2023-05-25T00:15:38.934Z,8.66
2023-05-25T00:16:38.947Z,8.61
2023-05-25T00:17:38.964Z,8.55
2023-05-25T00:18:38.912Z,8.52
2023-05-25T00:19:38.913Z,8.63
2023-05-25T00:20:39.029Z,8.60
2023-05-25T00:21:38.901Z,8.56
2023-05-25T00:22:38.933Z,8.53
2023-05-25T00:23:38.899Z,8.55
2023-05-25T00:24:38.893Z,8.60
2023-05-25T00:25:38.929Z,8.58
2023-05-25T00:26:38.880Z,8.67
2023-05-25T00:27:38.886Z,8.69
2023-05-25T00:28:38.866Z,8.61
2023-05-25T00:29:38.861Z,8.66
2023-05-25T00:30:38.994Z,8.69
2023-05-25T00:31:38.929Z,8.66
2023-05-25T00:32:38.883Z,8.63
2023-05-25T00:33:38.861Z,8.60
2023-05-25T00:34:38.865Z,8.56
2023-05-25T00:35:38.852Z,8.48
2023-05-25T00:36:38.846Z,8.46
2023-05-25T00:37:38.852Z,8.51
2023-05-25T00:38:38.836Z,8.45
2023-05-25T00:39:38.829Z,8.52
2023-05-25T00:40:38.824Z,8.45
2023-05-25T00:41:38.848Z,8.46
2023-05-25T00:42:38.823Z,8.45
2023-05-25T00:43:38.819Z,8.48
2023-05-25T00:44:38.817Z,8.36
2023-05-25T00:45:38.814Z,8.30
2023-05-25T00:46:38.943Z,8.23
2023-05-25T00:47:39.282Z,8.19
2023-05-25T00:48:38.801Z,8.19
2023-05-25T00:49:38.828Z,8.24
2023-05-25T00:50:38.790Z,8.24
2023-05-25T00:51:38.796Z,8.30
2023-05-25T00:52:38.782Z,8.18
2023-05-25T00:53:38.780Z,8.19
2023-05-25T00:54:38.783Z,8.24
2023-05-25T00:55:38.782Z,8.26
2023-05-25T00:56:38.788Z,8.24
2023-05-25T00:57:38.790Z,8.26
2023-05-25T00:58:38.764Z,8.27
2023-05-25T00:59:38.760Z,8.26
2023-05-25T01:00:38.772Z,8.26
2023-05-25T01:01:38.792Z,8.27
2023-05-25T01:02:38.917Z,8.24
2023-05-25T01:03:38.835Z,8.24
2023-05-25T01:04:38.739Z,8.16
2023-05-25T01:05:38.740Z,8.10
2023-05-25T01:06:38.732Z,8.12
2023-05-25T01:07:38.729Z,8.03
2023-05-25T01:08:38.726Z,7.95
2023-05-25T01:09:38.723Z,8.05
2023-05-25T01:10:38.716Z,7.97
2023-05-25T01:11:38.712Z,8.00
2023-05-25T01:12:38.711Z,7.91
2023-05-25T01:13:38.730Z,7.85
2023-05-25T01:14:38.709Z,7.87
2023-05-25T01:15:38.698Z,7.93
2023-05-25T01:16:38.726Z,7.90
2023-05-25T01:17:38.762Z,7.94
2023-05-25T01:18:38.689Z,7.93
2023-05-25T01:19:38.685Z,8.00
2023-05-25T01:20:38.704Z,8.00
2023-05-25T01:21:38.686Z,8.01
2023-05-25T01:22:38.672Z,8.09
2023-05-25T01:23:38.673Z,8.05
2023-05-25T01:24:38.664Z,8.08
2023-05-25T01:25:38.672Z,8.09
2023-05-25T01:26:38.661Z,8.01
2023-05-25T01:27:38.658Z,8.08
2023-05-25T01:28:38.667Z,8.09
2023-05-25T01:29:38.679Z,8.09
2023-05-25T01:30:38.645Z,8.00
2023-05-25T01:31:38.657Z,8.00
2023-05-25T01:32:38.706Z,8.09
2023-05-25T01:33:38.633Z,7.98
2023-05-25T01:34:38.637Z,8.03
2023-05-25T01:35:38.626Z,8.09
2023-05-25T01:36:38.621Z,8.15
2023-05-25T01:37:38.615Z,8.19
2023-05-25T01:38:38.631Z,8.27
2023-05-25T01:39:38.609Z,8.16
2023-05-25T01:40:38.608Z,8.23
2023-05-25T01:41:38.601Z,8.24
2023-05-25T01:42:38.596Z,8.24
2023-05-25T01:43:38.592Z,8.23
2023-05-25T01:44:38.587Z,8.27
2023-05-25T01:45:38.699Z,8.20
2023-05-25T01:46:38.621Z,8.36
2023-05-25T01:47:38.594Z,8.41
2023-05-25T01:48:38.570Z,8.46
2023-05-25T01:49:38.572Z,8.52
2023-05-25T01:50:38.566Z,8.49
2023-05-25T01:51:38.579Z,8.52
2023-05-25T01:52:38.554Z,8.48
2023-05-25T01:53:38.560Z,8.44
2023-05-25T01:54:38.550Z,8.45
2023-05-25T01:55:38.547Z,8.34
2023-05-25T01:56:38.545Z,8.26
2023-05-25T01:57:38.551Z,8.15
2023-05-25T01:58:38.539Z,8.10
2023-05-25T01:59:38.530Z,8.08
2023-05-25T02:00:38.529Z,8.08
2023-05-25T02:01:38.710Z,8.24
2023-05-25T02:02:38.561Z,8.18
2023-05-25T02:03:38.517Z,8.23
2023-05-25T02:04:38.547Z,8.26
2023-05-25T02:05:38.510Z,8.23
2023-05-25T02:06:38.506Z,8.26
2023-05-25T02:07:38.507Z,8.20
2023-05-25T02:08:38.501Z,8.19
2023-05-25T02:09:38.496Z,8.12
2023-05-25T02:10:38.494Z,7.98
2023-05-25T02:11:38.487Z,7.97
2023-05-25T02:12:38.484Z,7.94
2023-05-25T02:13:38.481Z,7.88
2023-05-25T02:14:38.484Z,7.93
2023-05-25T02:15:38.493Z,7.80
2023-05-25T02:16:38.503Z,7.83
2023-05-25T02:17:38.612Z,7.80
2023-05-25T02:18:38.473Z,7.76
2023-05-25T02:19:38.459Z,7.87
2023-05-25T02:20:38.482Z,7.83
2023-05-25T02:21:38.460Z,7.91
2023-05-25T02:22:38.450Z,7.88
2023-05-25T02:23:38.443Z,7.94
2023-05-25T02:24:38.523Z,7.97
2023-05-25T02:25:38.453Z,7.91
2023-05-25T02:26:38.441Z,7.90
2023-05-25T02:27:38.429Z,7.93
2023-05-25T02:28:38.429Z,8.01
2023-05-25T02:29:38.427Z,8.01
2023-05-25T02:30:38.416Z,8.09
2023-05-25T02:31:38.453Z,8.12
2023-05-25T02:32:38.428Z,8.12
2023-05-25T02:33:38.620Z,8.20
2023-05-25T02:34:38.401Z,8.24
2023-05-25T02:35:38.416Z,8.18
2023-05-25T02:36:38.401Z,8.23
2023-05-25T02:37:38.390Z,8.20
2023-05-25T02:38:38.387Z,8.08
2023-05-25T02:39:38.386Z,8.10
2023-05-25T02:40:38.410Z,8.01
2023-05-25T02:41:38.382Z,8.01
2023-05-25T02:42:38.394Z,7.91
2023-05-25T02:43:38.368Z,7.91
2023-05-25T02:44:38.370Z,7.90
2023-05-25T02:45:38.364Z,7.72
2023-05-25T02:46:38.407Z,7.76
2023-05-25T02:47:38.373Z,7.67
2023-05-25T02:48:38.360Z,7.69
2023-05-25T02:49:38.375Z,7.70
2023-05-25T02:50:38.339Z,7.79
2023-05-25T02:51:38.331Z,7.80
2023-05-25T02:52:38.482Z,7.98
2023-05-25T02:53:38.331Z,7.88
2023-05-25T02:54:38.322Z,7.69
2023-05-25T02:55:38.318Z,7.57
2023-05-25T02:56:38.327Z,7.69
2023-05-25T02:57:38.311Z,7.57
2023-05-25T02:58:38.308Z,7.54
2023-05-25T02:59:38.305Z,7.53
2023-05-25T03:00:38.324Z,7.53
2023-05-25T03:01:38.295Z,7.58
2023-05-25T03:02:38.339Z,7.77
2023-05-25T03:03:38.309Z,7.70
2023-05-25T03:04:38.279Z,7.80
2023-05-25T03:05:38.321Z,7.82
2023-05-25T03:06:38.271Z,7.91
2023-05-25T03:07:38.272Z,7.93
2023-05-25T03:08:38.265Z,7.94
2023-05-25T03:09:38.262Z,7.87
2023-05-25T03:10:38.258Z,7.91
2023-05-25T03:11:38.256Z,7.85
2023-05-25T03:12:38.254Z,7.80
2023-05-25T03:13:38.245Z,7.73
2023-05-25T03:14:38.242Z,7.57
2023-05-25T03:15:38.243Z,7.61
2023-05-25T03:16:38.244Z,7.67
2023-05-25T03:17:38.254Z,7.58
2023-05-25T03:18:38.231Z,7.57
2023-05-25T03:19:38.242Z,7.61
2023-05-25T03:20:38.366Z,7.67
2023-05-25T03:21:38.265Z,7.73
2023-05-25T03:22:38.210Z,7.79
2023-05-25T03:23:38.208Z,7.85
2023-05-25T03:24:38.207Z,7.91
2023-05-25T03:25:38.197Z,7.91
2023-05-25T03:26:38.203Z,7.97
2023-05-25T03:27:38.192Z,8.05
2023-05-25T03:28:38.188Z,8.08
2023-05-25T03:29:38.192Z,8.08
2023-05-25T03:30:38.179Z,8.10
2023-05-25T03:31:38.196Z,8.10
2023-05-25T03:32:38.208Z,8.09
2023-05-25T03:33:38.168Z,8.20
2023-05-25T03:34:38.164Z,8.20
2023-05-25T03:35:38.162Z,8.27
2023-05-25T03:36:38.157Z,8.24
2023-05-25T03:37:38.179Z,8.24
2023-05-25T03:38:38.153Z,8.23
2023-05-25T03:39:38.148Z,8.20
2023-05-25T03:40:38.140Z,8.26
2023-05-25T03:41:38.137Z,8.20
2023-05-25T03:42:38.136Z,8.13
2023-05-25T03:43:38.131Z,8.16
2023-05-25T03:44:40.463Z,8.10
2023-05-25T03:45:38.122Z,8.01
2023-05-25T03:46:38.173Z,8.01
2023-05-25T03:47:38.162Z,8.03
2023-05-25T03:48:38.116Z,7.97
2023-05-25T03:49:38.117Z,8.01
2023-05-25T03:50:38.108Z,8.01
2023-05-25T03:51:38.095Z,8.01
2023-05-25T03:52:38.103Z,8.01
2023-05-25T03:53:38.112Z,7.98
2023-05-25T03:54:38.089Z,8.03
2023-05-25T03:55:38.079Z,8.00
2023-05-25T03:56:38.078Z,7.95
2023-05-25T03:57:38.275Z,7.95
2023-05-25T03:58:38.097Z,7.93
2023-05-25T03:59:38.085Z,7.98
2023-05-25T04:00:38.082Z,7.83
2023-05-25T04:01:38.081Z,7.82
2023-05-25T04:02:38.114Z,7.83
2023-05-25T04:03:38.262Z,7.69
2023-05-25T04:04:38.081Z,7.83
2023-05-25T04:05:38.041Z,7.73
2023-05-25T04:06:38.044Z,7.73
2023-05-25T04:07:38.034Z,7.80
2023-05-25T04:08:38.032Z,7.73
2023-05-25T04:09:38.059Z,7.72
2023-05-25T04:10:38.022Z,7.77
2023-05-25T04:11:38.015Z,7.77
2023-05-25T04:12:38.013Z,7.69
2023-05-25T04:13:38.012Z,7.77
2023-05-25T04:14:38.009Z,7.75
2023-05-25T04:15:37.998Z,7.77
2023-05-25T04:16:38.051Z,7.75
2023-05-25T04:17:39.389Z,7.85
2023-05-25T04:18:37.990Z,7.95
2023-05-25T04:19:37.992Z,7.91
2023-05-25T04:20:38.213Z,7.90
2023-05-25T04:21:37.984Z,7.91
2023-05-25T04:22:37.981Z,7.95
2023-05-25T04:23:37.968Z,8.06
2023-05-25T04:24:37.979Z,8.00
2023-05-25T04:25:37.981Z,8.09
2023-05-25T04:26:37.958Z,8.09
2023-05-25T04:27:37.954Z,8.18
2023-05-25T04:28:37.951Z,8.27
2023-05-25T04:29:37.954Z,8.27
2023-05-25T04:30:37.941Z,8.27
2023-05-25T04:31:37.980Z,8.36
2023-05-25T04:32:37.956Z,8.38
2023-05-25T04:33:37.927Z,8.48
2023-05-25T04:34:37.939Z,8.45
2023-05-25T04:35:37.920Z,8.38
2023-05-25T04:36:37.915Z,8.48
2023-05-25T04:37:37.912Z,8.49
2023-05-25T04:38:37.915Z,8.56
2023-05-25T04:39:37.901Z,8.51
2023-05-25T04:40:37.900Z,8.55
2023-05-25T04:41:37.912Z,8.64
2023-05-25T04:42:37.897Z,8.70
2023-05-25T04:43:39.144Z,8.71
2023-05-25T04:44:37.899Z,8.76
2023-05-25T04:45:37.934Z,8.81
2023-05-25T04:46:37.926Z,8.79
2023-05-25T04:47:37.891Z,8.78
2023-05-25T04:48:37.869Z,8.82
2023-05-25T04:49:37.868Z,8.85
2023-05-25T04:50:37.861Z,8.95
2023-05-25T04:51:37.850Z,8.92
2023-05-25T04:52:37.852Z,8.92
2023-05-25T04:53:37.850Z,9.00
2023-05-25T04:54:37.847Z,9.06
2023-05-25T04:55:37.834Z,9.10
2023-05-25T04:56:37.833Z,9.23
2023-05-25T04:57:37.878Z,9.26
2023-05-25T04:58:37.829Z,9.26
2023-05-25T04:59:37.836Z,9.29
2023-05-25T05:00:37.833Z,9.32
2023-05-25T05:01:37.869Z,9.44
2023-05-25T05:02:37.997Z,9.44
2023-05-25T05:03:37.834Z,9.46
2023-05-25T05:04:37.824Z,9.48
2023-05-25T05:05:37.822Z,9.56
2023-05-25T05:06:37.803Z,9.55
2023-05-25T05:07:37.792Z,9.66
2023-05-25T05:08:37.791Z,9.66
2023-05-25T05:09:37.787Z,9.68
2023-05-25T05:10:37.807Z,9.74
2023-05-25T05:11:37.799Z,9.80
2023-05-25T05:12:37.774Z,9.84
2023-05-25T05:13:37.787Z,9.84
2023-05-25T05:14:37.790Z,9.83
2023-05-25T05:15:37.762Z,9.87
2023-05-25T05:16:37.825Z,9.98
2023-05-25T05:17:37.763Z,9.92
2023-05-25T05:18:37.751Z,9.94
2023-05-25T05:19:37.748Z,10.01
2023-05-25T05:20:37.780Z,10.09
2023-05-25T05:21:37.747Z,10.07
2023-05-25T05:22:37.743Z,10.15
2023-05-25T05:23:37.735Z,10.09
2023-05-25T05:24:37.731Z,10.10
2023-05-25T05:25:37.725Z,10.15
2023-05-25T05:26:48.210Z,10.13
2023-05-25T05:27:37.733Z,10.15
2023-05-25T05:28:37.718Z,10.17
2023-05-25T05:29:37.791Z,10.13
2023-05-25T05:30:37.711Z,10.17
2023-05-25T05:31:37.745Z,10.17
2023-05-25T05:32:37.760Z,10.22
2023-05-25T05:33:37.758Z,10.33
2023-05-25T05:34:37.739Z,10.19
2023-05-25T05:35:37.710Z,10.22
2023-05-25T05:36:48.869Z,10.19
2023-05-25T05:37:37.693Z,10.34
2023-05-25T05:38:39.955Z,10.26
2023-05-25T05:39:37.681Z,10.34
2023-05-25T05:40:37.695Z,10.40
2023-05-25T05:41:37.670Z,10.46
2023-05-25T05:42:37.687Z,10.41
2023-05-25T05:43:37.673Z,10.51
2023-05-25T05:44:37.662Z,10.40
2023-05-25T05:45:37.710Z,10.44
2023-05-25T05:46:37.765Z,10.61
2023-05-25T05:47:37.755Z,10.64
2023-05-25T05:48:37.647Z,10.64
2023-05-25T05:49:37.639Z,10.63
2023-05-25T05:50:39.568Z,10.74
2023-05-25T05:51:37.662Z,10.72
2023-05-25T05:52:37.647Z,10.74
2023-05-25T05:53:37.655Z,10.79
2023-05-25T05:54:37.627Z,10.81
2023-05-25T05:55:37.629Z,10.87
2023-05-25T05:56:37.625Z,10.84
2023-05-25T05:57:37.647Z,10.86
2023-05-25T05:58:37.614Z,10.89
2023-05-25T05:59:37.611Z,10.97
2023-05-25T06:00:37.632Z,10.86
2023-05-25T06:01:37.677Z,10.99
2023-05-25T06:02:40.698Z,11.05
2023-05-25T06:03:37.610Z,11.04
2023-05-25T06:04:37.595Z,11.07
2023-05-25T06:05:37.644Z,11.18
2023-05-25T06:06:37.585Z,11.11
2023-05-25T06:07:37.582Z,11.12
2023-05-25T06:08:37.589Z,11.17
2023-05-25T06:09:37.589Z,11.15
2023-05-25T06:10:37.576Z,11.19
2023-05-25T06:11:37.606Z,11.30
2023-05-25T06:12:37.576Z,11.33
2023-05-25T06:13:37.556Z,11.33
2023-05-25T06:14:37.563Z,11.27
2023-05-25T06:15:37.563Z,11.32
2023-05-25T06:16:37.632Z,11.30
2023-05-25T06:17:37.686Z,11.48
2023-05-25T06:18:37.548Z,11.47
2023-05-25T06:19:37.548Z,11.43
2023-05-25T06:20:37.646Z,11.59
2023-05-25T06:21:37.539Z,11.54
2023-05-25T06:22:37.532Z,11.55
2023-05-25T06:23:37.531Z,11.68
2023-05-25T06:24:37.525Z,11.75
2023-05-25T06:25:37.524Z,11.78
2023-05-25T06:26:37.547Z,11.81
2023-05-25T06:27:37.513Z,11.88
2023-05-25T06:28:37.522Z,11.95
2023-05-25T06:29:37.513Z,11.84
2023-05-25T06:30:37.508Z,11.90
2023-05-25T06:31:37.553Z,11.91
2023-05-25T06:32:37.523Z,11.88
2023-05-25T06:33:37.542Z,11.90
2023-05-25T06:34:38.312Z,11.94
2023-05-25T06:35:37.493Z,12.03
2023-05-25T06:36:37.485Z,12.15
2023-05-25T06:37:37.481Z,12.10
2023-05-25T06:38:37.480Z,12.13
2023-05-25T06:39:37.478Z,12.13
2023-05-25T06:40:37.476Z,12.12
2023-05-25T06:41:37.474Z,12.15
2023-05-25T06:42:37.468Z,12.18
2023-05-25T06:43:37.473Z,12.20
2023-05-25T06:44:37.459Z,12.27
2023-05-25T06:45:37.466Z,12.24
2023-05-25T06:46:37.485Z,12.35
2023-05-25T06:47:37.528Z,12.32
2023-05-25T06:48:37.457Z,12.35
2023-05-25T06:49:37.469Z,12.49
2023-05-25T06:50:37.465Z,12.49
2023-05-25T06:51:37.488Z,12.65
2023-05-25T06:52:37.444Z,12.60
2023-05-25T06:53:37.432Z,12.60
2023-05-25T06:54:37.432Z,12.58
2023-05-25T06:55:37.446Z,12.64
2023-05-25T06:56:37.428Z,12.60
2023-05-25T06:57:37.422Z,12.61
2023-05-25T06:58:37.440Z,12.58
2023-05-25T06:59:37.423Z,12.73
2023-05-25T07:00:37.416Z,12.61
2023-05-25T07:01:37.439Z,12.73
2023-05-25T07:02:37.437Z,12.70
2023-05-25T07:03:37.405Z,12.68
2023-05-25T07:04:37.456Z,12.73
2023-05-25T07:05:37.423Z,12.70
2023-05-25T07:06:37.404Z,12.70
2023-05-25T07:07:37.396Z,12.73
2023-05-25T07:08:37.399Z,12.82
2023-05-25T07:09:37.393Z,12.82
2023-05-25T07:10:37.390Z,12.87
2023-05-25T07:11:37.386Z,12.91
2023-05-25T07:12:37.384Z,12.75
2023-05-25T07:13:37.381Z,12.79
2023-05-25T07:14:37.396Z,12.85
2023-05-25T07:15:37.383Z,12.76
2023-05-25T07:16:37.439Z,12.79
2023-05-25T07:17:37.435Z,12.79
2023-05-25T07:18:37.376Z,12.80
2023-05-25T07:19:37.371Z,12.83
2023-05-25T07:20:37.434Z,12.80
2023-05-25T07:21:37.443Z,12.82
2023-05-25T07:22:37.369Z,12.93
2023-05-25T07:23:37.376Z,12.91
2023-05-25T07:24:37.356Z,12.86
2023-05-25T07:25:37.350Z,12.94
2023-05-25T07:26:37.354Z,13.09
2023-05-25T07:27:37.374Z,13.13
2023-05-25T07:28:37.350Z,13.19
2023-05-25T07:29:37.341Z,13.20
2023-05-25T07:30:37.342Z,13.28
2023-05-25T07:31:37.425Z,13.27
2023-05-25T07:32:37.365Z,13.27
2023-05-25T07:33:37.330Z,13.38
2023-05-25T07:34:37.331Z,13.31
2023-05-25T07:35:37.325Z,13.38
2023-05-25T07:36:37.325Z,13.44
2023-05-25T07:37:37.362Z,13.47
2023-05-25T07:38:37.324Z,13.54
2023-05-25T07:39:37.314Z,13.53
2023-05-25T07:40:37.322Z,13.49
2023-05-25T07:41:37.312Z,13.62
2023-05-25T07:42:37.314Z,13.62
2023-05-25T07:43:37.311Z,13.62
2023-05-25T07:44:37.307Z,13.72
2023-05-25T07:45:37.304Z,13.79
2023-05-25T07:46:37.328Z,13.83
2023-05-25T07:47:37.337Z,13.90
2023-05-25T07:48:37.293Z,13.86
2023-05-25T07:49:37.295Z,13.90
2023-05-25T07:50:37.299Z,13.86
2023-05-25T07:51:37.287Z,13.74
2023-05-25T07:52:37.289Z,13.77
2023-05-25T07:53:37.302Z,13.77
2023-05-25T07:54:37.315Z,13.68
2023-05-25T07:55:37.274Z,13.70
2023-05-25T07:56:37.278Z,13.62
2023-05-25T07:57:37.276Z,13.52
2023-05-25T07:58:37.270Z,13.59
2023-05-25T07:59:37.298Z,13.54
2023-05-25T08:00:37.276Z,13.62
2023-05-25T08:01:37.261Z,13.67
2023-05-25T08:02:37.626Z,13.63
2023-05-25T08:03:48.835Z,13.53
2023-05-25T08:04:37.427Z,13.50
2023-05-25T08:05:37.253Z,13.60
2023-05-25T08:06:37.255Z,13.57
2023-05-25T08:07:37.249Z,13.63
2023-05-25T08:08:37.249Z,13.59
2023-05-25T08:09:37.264Z,13.75
2023-05-25T08:10:37.249Z,13.71
2023-05-25T08:11:37.240Z,13.77
2023-05-25T08:12:47.835Z,13.81
2023-05-25T08:13:37.237Z,13.89
2023-05-25T08:14:37.236Z,13.90
2023-05-25T08:15:37.232Z,13.89
2023-05-25T08:16:37.236Z,13.93
2023-05-25T08:17:37.242Z,13.90
2023-05-25T08:18:37.228Z,13.75
2023-05-25T08:19:37.220Z,13.65
2023-05-25T08:20:37.270Z,13.62
2023-05-25T08:21:37.212Z,13.53
2023-05-25T08:22:37.215Z,13.50
2023-05-25T08:23:37.207Z,13.57
2023-05-25T08:24:37.208Z,13.53
2023-05-25T08:25:37.223Z,13.65
2023-05-25T08:26:52.997Z,13.78
2023-05-25T08:27:37.203Z,13.85
2023-05-25T08:28:37.201Z,13.90
2023-05-25T08:29:37.192Z,13.87
2023-05-25T08:30:37.225Z,13.79
2023-05-25T08:31:37.323Z,13.95
2023-05-25T08:32:37.226Z,13.83
2023-05-25T08:33:37.187Z,13.92
2023-05-25T08:34:37.189Z,13.79
2023-05-25T08:35:37.180Z,13.85
2023-05-25T08:36:37.176Z,13.92
2023-05-25T08:37:37.175Z,14.00
2023-05-25T08:38:37.173Z,14.12
2023-05-25T08:39:37.179Z,14.25
2023-05-25T08:40:37.170Z,14.22
2023-05-25T08:41:37.191Z,14.28
2023-05-25T08:42:37.168Z,14.10
2023-05-25T08:43:37.166Z,14.10
2023-05-25T08:44:37.175Z,14.05
2023-05-25T08:45:40.518Z,14.04
2023-05-25T08:46:37.167Z,14.20
2023-05-25T08:47:37.178Z,14.30
2023-05-25T08:48:41.869Z,14.33
2023-05-25T08:49:37.223Z,14.30
2023-05-25T08:50:37.161Z,14.28
2023-05-25T08:51:37.155Z,14.37
2023-05-25T08:52:37.149Z,14.20
2023-05-25T08:53:37.143Z,14.15
2023-05-25T08:54:37.145Z,14.20
2023-05-25T08:55:37.134Z,14.14
2023-05-25T08:56:37.199Z,14.18
2023-05-25T08:57:37.159Z,14.36
2023-05-25T08:58:37.129Z,14.37
2023-05-25T08:59:37.129Z,14.32
2023-05-25T09:00:37.121Z,14.41
2023-05-25T09:01:37.163Z,14.59
2023-05-25T09:02:37.646Z,14.63
2023-05-25T09:03:37.181Z,14.51
2023-05-25T09:04:37.122Z,14.66
2023-05-25T09:05:38.186Z,14.62
2023-05-25T09:06:37.129Z,14.54
2023-05-25T09:07:37.113Z,14.53
2023-05-25T09:08:37.100Z,14.40
2023-05-25T09:09:37.108Z,14.30
2023-05-25T09:10:37.120Z,14.12
2023-05-25T09:11:40.361Z,13.96
2023-05-25T09:12:37.099Z,13.89
2023-05-25T09:13:37.115Z,13.90
2023-05-25T09:14:37.094Z,13.90
2023-05-25T09:15:37.089Z,13.86
2023-05-25T09:16:37.124Z,13.86
2023-05-25T09:17:38.259Z,13.89
2023-05-25T09:18:37.098Z,13.90
2023-05-25T09:19:37.087Z,13.85
2023-05-25T09:20:37.108Z,13.81
2023-05-25T09:21:37.075Z,13.93
2023-05-25T09:22:37.073Z,13.87
2023-05-25T09:23:37.070Z,13.93
2023-05-25T09:24:37.078Z,13.87
2023-05-25T09:25:37.070Z,13.93
2023-05-25T09:26:37.077Z,13.97
2023-05-25T09:27:37.079Z,14.04
2023-05-25T09:28:37.060Z,14.11
2023-05-25T09:29:37.080Z,14.08
2023-05-25T09:30:37.055Z,14.18
2023-05-25T09:31:37.076Z,14.18
2023-05-25T09:32:37.078Z,14.25
2023-05-25T09:33:37.264Z,14.26
2023-05-25T09:34:37.052Z,14.23
2023-05-25T09:35:37.045Z,14.32
2023-05-25T09:36:37.115Z,14.37
2023-05-25T09:37:37.304Z,14.45
2023-05-25T09:38:37.236Z,14.41
2023-05-25T09:39:37.158Z,14.53
2023-05-25T09:40:37.050Z,14.54
2023-05-25T09:41:37.034Z,14.54
2023-05-25T09:42:37.035Z,14.51
2023-05-25T09:43:41.943Z,14.50
2023-05-25T09:44:37.043Z,14.44
2023-05-25T09:45:38.367Z,14.51
2023-05-25T09:46:37.123Z,14.40
2023-05-25T09:47:37.039Z,14.41
2023-05-25T09:48:37.023Z,14.37
2023-05-25T09:49:37.023Z,14.45
2023-05-25T09:50:37.020Z,14.33
2023-05-25T09:51:37.203Z,14.28
2023-05-25T09:52:37.012Z,14.22
2023-05-25T09:53:37.024Z,14.30
2023-05-25T09:54:37.004Z,14.23
2023-05-25T09:55:51.449Z,14.23
2023-05-25T09:56:36.992Z,14.25
2023-05-25T09:57:36.996Z,14.25
2023-05-25T09:58:36.991Z,14.29
2023-05-25T09:59:37.021Z,14.22
2023-05-25T10:00:36.996Z,14.32
2023-05-25T10:01:37.058Z,14.35
2023-05-25T10:02:37.015Z,14.32
2023-05-25T10:03:38.838Z,14.37
2023-05-25T10:04:37.042Z,14.50
2023-05-25T10:05:36.988Z,14.54
2023-05-25T10:06:36.975Z,14.53
2023-05-25T10:07:36.978Z,14.50
2023-05-25T10:08:36.966Z,14.40
2023-05-25T10:09:36.968Z,14.32
2023-05-25T10:10:36.970Z,14.40
2023-05-25T10:11:36.990Z,14.51
2023-05-25T10:12:36.956Z,14.51
2023-05-25T10:13:36.962Z,14.40
2023-05-25T10:14:36.972Z,14.43
2023-05-25T10:15:36.989Z,14.37
2023-05-25T10:16:37.027Z,14.28
2023-05-25T10:17:37.064Z,14.33
2023-05-25T10:18:36.948Z,14.26
2023-05-25T10:19:36.942Z,14.32
2023-05-25T10:20:36.972Z,14.35
2023-05-25T10:21:36.949Z,14.44
2023-05-25T10:22:36.940Z,14.48
2023-05-25T10:23:36.937Z,14.53
2023-05-25T10:24:36.948Z,14.48
2023-05-25T10:25:36.939Z,14.50
2023-05-25T10:26:36.924Z,14.62
2023-05-25T10:27:36.937Z,14.62
2023-05-25T10:28:36.930Z,14.59
2023-05-25T10:29:36.926Z,14.60
2023-05-25T10:30:36.922Z,14.69
2023-05-25T10:31:36.938Z,14.72
2023-05-25T10:32:36.987Z,14.70
2023-05-25T10:33:36.925Z,14.73
2023-05-25T10:34:36.905Z,14.70
2023-05-25T10:35:47.001Z,14.72
2023-05-25T10:36:36.907Z,14.73
2023-05-25T10:37:36.904Z,14.70
2023-05-25T10:38:36.901Z,14.77
2023-05-25T10:39:36.897Z,14.72
2023-05-25T10:40:36.892Z,14.73
2023-05-25T10:41:36.910Z,14.68
2023-05-25T10:42:36.895Z,14.73
2023-05-25T10:43:36.901Z,14.73
2023-05-25T10:44:36.894Z,14.77
2023-05-25T10:45:36.896Z,14.79
2023-05-25T10:46:36.936Z,14.72
2023-05-25T10:47:36.977Z,14.84
2023-05-25T10:48:36.893Z,14.88
2023-05-25T10:49:36.887Z,14.84
2023-05-25T10:50:36.861Z,14.88
2023-05-25T10:51:36.863Z,14.85
2023-05-25T10:52:36.857Z,14.72
2023-05-25T10:53:36.855Z,14.69
2023-05-25T10:54:36.856Z,14.85
2023-05-25T10:55:36.852Z,14.85
2023-05-25T10:56:36.858Z,14.70
2023-05-25T10:57:36.851Z,14.77
2023-05-25T10:58:36.841Z,14.72
2023-05-25T10:59:36.838Z,14.69
2023-05-25T11:00:36.927Z,14.82
2023-05-25T11:01:36.974Z,14.92
2023-05-25T11:02:36.929Z,14.89
2023-05-25T11:03:36.826Z,14.91
2023-05-25T11:04:36.873Z,14.89
2023-05-25T11:05:36.867Z,14.85
2023-05-25T11:06:36.819Z,14.72
2023-05-25T11:07:36.819Z,14.66
2023-05-25T11:08:37.267Z,14.60
2023-05-25T11:09:36.815Z,14.62
2023-05-25T11:10:36.812Z,14.58
2023-05-25T11:11:36.809Z,14.59
2023-05-25T11:12:36.811Z,14.62
2023-05-25T11:13:38.928Z,14.66
2023-05-25T11:14:36.803Z,14.69
2023-05-25T11:15:36.822Z,14.60
2023-05-25T11:16:36.843Z,14.60
2023-05-25T11:17:36.836Z,14.77
2023-05-25T11:18:36.793Z,14.62
2023-05-25T11:19:37.225Z,14.59
2023-05-25T11:20:36.815Z,14.66
2023-05-25T11:21:36.808Z,14.50
2023-05-25T11:22:36.780Z,14.58
2023-05-25T11:23:36.783Z,14.54
2023-05-25T11:24:36.783Z,14.50
2023-05-25T11:25:37.227Z,14.54
2023-05-25T11:26:36.784Z,14.50
2023-05-25T11:27:36.774Z,14.53
2023-05-25T11:28:36.769Z,14.48
2023-05-25T11:29:36.770Z,14.51
2023-05-25T11:30:36.893Z,14.51
2023-05-25T11:31:41.407Z,14.62
2023-05-25T11:32:36.803Z,14.59
2023-05-25T11:33:36.755Z,14.62
2023-05-25T11:34:36.756Z,14.50
2023-05-25T11:35:36.761Z,14.51
2023-05-25T11:36:36.756Z,14.40
2023-05-25T11:37:36.768Z,14.33
2023-05-25T11:38:36.746Z,14.37
2023-05-25T11:39:36.748Z,14.43
2023-05-25T11:40:40.060Z,14.37
2023-05-25T11:41:36.826Z,14.44
2023-05-25T11:42:36.735Z,14.43
2023-05-25T11:43:36.745Z,14.45
2023-05-25T11:44:36.842Z,14.40
2023-05-25T11:45:36.737Z,14.37
2023-05-25T11:46:36.735Z,14.26
2023-05-25T11:47:38.175Z,14.43
2023-05-25T11:48:36.722Z,14.48
2023-05-25T11:49:36.729Z,14.54
2023-05-25T11:50:36.729Z,14.50
2023-05-25T11:51:36.716Z,14.60
2023-05-25T11:52:36.715Z,14.72
2023-05-25T11:53:36.731Z,14.73
2023-05-25T11:54:36.708Z,14.73
2023-05-25T11:55:36.716Z,14.72
2023-05-25T11:56:36.711Z,14.70
2023-05-25T11:57:36.698Z,14.79
2023-05-25T11:58:36.702Z,14.85
2023-05-25T11:59:36.705Z,14.81
2023-05-25T12:00:36.697Z,14.79
2023-05-25T12:01:36.724Z,14.77
2023-05-25T12:02:36.727Z,14.77
2023-05-25T12:03:36.809Z,14.63
2023-05-25T12:04:36.786Z,14.68
2023-05-25T12:05:36.729Z,14.66
2023-05-25T12:06:36.807Z,14.72
2023-05-25T12:07:36.677Z,14.77
2023-05-25T12:08:36.685Z,14.69
2023-05-25T12:09:36.726Z,14.70
2023-05-25T12:10:36.670Z,14.73
2023-05-25T12:11:36.666Z,14.73
2023-05-25T12:12:36.662Z,14.86
2023-05-25T12:13:36.863Z,14.89
2023-05-25T12:14:36.658Z,14.97
2023-05-25T12:15:36.657Z,15.03
2023-05-25T12:16:36.671Z,15.02
2023-05-25T12:17:36.676Z,15.02
2023-05-25T12:18:36.661Z,14.94
2023-05-25T12:19:36.654Z,14.89
2023-05-25T12:20:36.673Z,14.91
2023-05-25T12:21:37.377Z,14.99
2023-05-25T12:22:36.645Z,15.02
2023-05-25T12:23:36.639Z,15.09
2023-05-25T12:24:36.636Z,15.02
2023-05-25T12:25:49.547Z,15.02
2023-05-25T12:26:36.632Z,15.03
2023-05-25T12:27:36.632Z,15.09
2023-05-25T12:28:36.630Z,15.09
2023-05-25T12:29:36.625Z,15.09
2023-05-25T12:30:36.683Z,15.04
2023-05-25T12:31:36.625Z,15.06
2023-05-25T12:32:36.694Z,15.03
2023-05-25T12:33:36.627Z,15.15
2023-05-25T12:34:36.616Z,15.18
2023-05-25T12:35:36.612Z,15.09
2023-05-25T12:36:36.613Z,15.17
2023-05-25T12:37:36.610Z,15.14
2023-05-25T12:38:36.614Z,15.03
2023-05-25T12:39:36.961Z,15.11
2023-05-25T12:40:36.603Z,15.14
2023-05-25T12:41:36.623Z,15.09
2023-05-25T12:42:36.606Z,15.15
2023-05-25T12:43:36.597Z,15.14
2023-05-25T12:44:36.593Z,15.14
2023-05-25T12:45:36.595Z,15.14
2023-05-25T12:46:36.641Z,15.17
2023-05-25T12:47:36.620Z,15.17
2023-05-25T12:48:36.587Z,15.17
2023-05-25T12:49:36.587Z,15.21
2023-05-25T12:50:37.272Z,15.19
2023-05-25T12:51:36.580Z,15.25
2023-05-25T12:52:36.583Z,15.33
2023-05-25T12:53:36.575Z,15.36
2023-05-25T12:54:36.577Z,15.37
2023-05-25T12:55:36.566Z,15.33
2023-05-25T12:56:36.567Z,15.28
2023-05-25T12:57:36.600Z,15.35
2023-05-25T12:58:36.569Z,15.39
2023-05-25T12:59:36.570Z,15.36
2023-05-25T13:00:36.612Z,15.29
2023-05-25T13:01:36.603Z,15.22
2023-05-25T13:02:36.577Z,15.35